Mount Airy, NC

12:09 AM EST on December 14, 2019 (GMT -0500)
Mount Airy-Surry County

Weather History for KMWK - October, 2019

Change the Weather History Date:

Friday, October 11, 2019

  Actual Average (WUND) Record (WUND)
Temperature  
Mean Temperature 63 °F -  
Max Temperature 77 °F - - (-1)
Min Temperature 49 °F - - (-1)
Degree Days  
Heating Degree Days 2    
Growing Degree Days 13 (Base 50)    
Moisture  
Dew Point 54 °F    
Average Humidity 74    
Maximum Humidity 93    
Minimum Humidity 46    
Precipitation  
Precipitation 0.00 in - - ()
Sea Level Pressure  
Sea Level Pressure 30.15 in    
Wind  
Wind Speed 0 mph ()    
Max Wind Speed 6 mph    
Max Gust Speed -    
Visibility 10.0 miles    
Events      
Averages and records for this station are not official NWS values.
T = Trace of Precipitation, MM = Missing Value Source: Averaged Metar Reports

Daily Weather History Graph

Daily Weather History Graph

Search for Another Location

Airport or City:

Astronomy

Oct. 11, 2019 Rise Set
Actual Time 7:25 AM EDT 6:51 PM EDT
Civil Twilight 6:59 AM EDT 7:17 PM EDT
Nautical Twilight 6:29 AM EDT 7:47 PM EDT
Astronomical Twilight 6:00 AM EDT 8:17 PM EDT
Moon 6:15 PM EDT (10/11) 5:10 AM EDT (10/11)
Length of Visible Light 12h 17m
Length of Day
11h 26m
Waxing Gibbous, 96% of the Moon is Illuminated
Oct 11
Waxing Gibbous
Oct 13
Full
Oct 21
Last Quarter
Oct 27
New
Nov 4
First Quarter

Hourly Weather History & Observations

Time (EDT) Temp. Dew Point Humidity Pressure Visibility Wind Dir Wind Speed Gust Speed Precip Events Conditions
12:15 AM 55.4 °F 52.2 °F 89% 30.21 in 10.0 mi Calm Calm - N/A   Clear
12:35 AM 54.5 °F 51.6 °F 90% 30.21 in 10.0 mi Calm Calm - N/A   Clear
12:55 AM 54.1 °F 51.1 °F 89% 30.21 in 10.0 mi Calm Calm - N/A   Clear
1:15 AM 53.8 °F 51.1 °F 91% 30.22 in 10.0 mi Calm Calm - N/A   Clear
1:35 AM 53.1 °F 50.4 °F 91% 30.21 in 10.0 mi Calm Calm - N/A   Clear
1:55 AM 53.6 °F 50.9 °F 91% 30.22 in 10.0 mi Calm Calm - N/A   Clear
2:15 AM 52.9 °F 50.2 °F 91% 30.21 in 10.0 mi Calm Calm - N/A   Clear
2:35 AM 53.4 °F 50.5 °F 90% 30.21 in 10.0 mi Calm Calm - N/A   Clear
2:55 AM 52.9 °F 50.2 °F 91% 30.21 in 10.0 mi Calm Calm - N/A   Clear
3:15 AM 52.2 °F 50.0 °F 92% 30.20 in 10.0 mi Calm Calm - N/A   Clear
3:35 AM 52.2 °F 50.0 °F 92% 30.19 in 10.0 mi Calm Calm - N/A   Clear
3:55 AM 51.3 °F 48.9 °F 92% 30.19 in 10.0 mi Calm Calm - N/A   Clear
4:15 AM 51.1 °F 49.1 °F 93% 30.19 in 10.0 mi Calm Calm - N/A   Clear
4:35 AM 51.1 °F 49.1 °F 93% 30.19 in 10.0 mi Calm Calm - N/A   Clear
4:55 AM 50.9 °F 48.7 °F 92% 30.19 in 10.0 mi Calm Calm - N/A   Clear
5:15 AM 50.7 °F 48.6 °F 92% 30.19 in 10.0 mi Calm Calm - N/A   Clear
5:35 AM 50.4 °F 48.4 °F 93% 30.20 in 10.0 mi Calm Calm - N/A   Clear
5:55 AM 50.4 °F 48.4 °F 93% 30.19 in 10.0 mi Calm Calm - N/A   Clear
6:15 AM 50.0 °F 48.0 °F 93% 30.19 in 10.0 mi Calm Calm - N/A   Clear
6:35 AM 49.6 °F 47.7 °F 93% 30.19 in 10.0 mi Calm Calm - N/A   Clear
6:55 AM 49.6 °F 47.7 °F 93% 30.19 in 10.0 mi Calm Calm - N/A   Clear
7:15 AM 49.6 °F 47.7 °F 93% 30.20 in 10.0 mi Calm Calm - N/A   Clear
7:35 AM 49.1 °F 47.1 °F 93% 30.20 in 10.0 mi Calm Calm - N/A   Clear
7:55 AM 50.0 °F 48.0 °F 93% 30.20 in 10.0 mi Calm Calm - N/A   Clear
8:15 AM 51.4 °F 49.5 °F 93% 30.20 in 10.0 mi Calm Calm - N/A   Clear
8:35 AM 53.2 °F 50.9 °F 92% 30.21 in 10.0 mi Calm Calm - N/A   Clear
8:55 AM 55.6 °F 52.7 °F 90% 30.21 in 10.0 mi Calm Calm - N/A   Clear
9:55 AM 62.4 °F 56.7 °F 81% 30.22 in 10.0 mi Calm Calm - N/A   Clear
10:15 AM 64.8 °F 56.7 °F 75% 30.21 in 10.0 mi Calm Calm - N/A   Clear
10:35 AM 66.4 °F 57.2 °F 72% 30.21 in 10.0 mi Calm Calm - N/A   Clear
10:55 AM 67.8 °F 55.9 °F 66% 30.20 in 10.0 mi Calm Calm - N/A   Clear
11:15 AM 68.5 °F 55.8 °F 64% 30.20 in 10.0 mi Calm Calm - N/A   Clear
11:35 AM 69.8 °F 56.7 °F 63% 30.19 in 10.0 mi WNW 4.6 mph - N/A   Clear
11:55 AM 70.5 °F 57.0 °F 62% 30.19 in 10.0 mi Calm Calm - N/A   Clear
12:15 PM 71.8 °F 57.2 °F 60% 30.19 in 10.0 mi SE 4.6 mph - N/A   Clear
12:35 PM 72.5 °F 57.0 °F 58% 30.18 in 10.0 mi Calm Calm - N/A   Clear
12:55 PM 73.4 °F 57.2 °F 57% 30.17 in 10.0 mi East 4.6 mph - N/A   Clear
1:15 PM 73.4 °F 55.9 °F 54% 30.16 in 10.0 mi South 3.5 mph - N/A   Clear
1:35 PM 74.8 °F 56.8 °F 53% 30.15 in 10.0 mi Calm Calm - N/A   Clear
1:55 PM 75.2 °F 55.8 °F 51% 30.14 in 10.0 mi NNW 3.5 mph - N/A   Clear
2:15 PM 75.7 °F 56.5 °F 51% 30.13 in 10.0 mi SSW 3.5 mph - N/A   Clear
2:35 PM 76.1 °F 56.3 °F 50% 30.12 in 10.0 mi West 4.6 mph - N/A   Clear
2:55 PM 76.6 °F 55.9 °F 49% 30.10 in 10.0 mi Calm Calm - N/A   Clear
3:15 PM 77.4 °F 56.5 °F 48% 30.10 in 10.0 mi WNW 5.8 mph - N/A   Clear
3:35 PM 77.0 °F 55.6 °F 47% 30.09 in 10.0 mi Calm Calm - N/A   Clear
3:55 PM 76.8 °F 55.8 °F 48% 30.09 in 10.0 mi Calm Calm - N/A   Clear
4:15 PM 77.4 °F 55.8 °F 47% 30.08 in 10.0 mi Calm Calm - N/A   Clear
4:35 PM 77.7 °F 55.6 °F 46% 30.08 in 10.0 mi Calm Calm - N/A   Clear
4:55 PM 77.7 °F 55.6 °F 46% 30.07 in 10.0 mi SSW 4.6 mph - N/A   Clear
5:15 PM 77.7 °F 55.8 °F 47% 30.07 in 10.0 mi SSE 3.5 mph - N/A   Clear
5:35 PM 77.4 °F 55.4 °F 47% 30.06 in 10.0 mi SSE 3.5 mph - N/A   Clear
5:55 PM 77.0 °F 55.0 °F 47% 30.07 in 10.0 mi SSE 3.5 mph - N/A   Clear
6:15 PM 75.9 °F 55.8 °F 49% 30.07 in 10.0 mi Calm Calm - N/A   Clear
6:35 PM 74.7 °F 56.7 °F 53% 30.06 in 10.0 mi Calm Calm - N/A   Clear
6:55 PM 72.5 °F 58.3 °F 61% 30.07 in 10.0 mi Calm Calm - N/A   Clear
7:15 PM 68.5 °F 59.0 °F 72% 30.07 in 10.0 mi Calm Calm - N/A   Clear
7:35 PM 67.8 °F 58.6 °F 72% 30.08 in 10.0 mi Calm Calm - N/A   Clear
7:55 PM 65.8 °F 59.0 °F 79% 30.08 in 10.0 mi Calm Calm - N/A   Clear
8:15 PM 66.2 °F 58.6 °F 77% 30.09 in 10.0 mi Calm Calm - N/A   Clear
8:35 PM 64.9 °F 58.1 °F 78% 30.09 in 10.0 mi Calm Calm - N/A   Clear
8:55 PM 66.0 °F 57.9 °F 75% 30.08 in 10.0 mi Calm Calm - N/A   Clear
9:15 PM 67.1 °F 55.9 °F 67% 30.08 in 10.0 mi Calm Calm - N/A   Clear
9:35 PM 67.3 °F 56.1 °F 67% 30.09 in 10.0 mi Calm Calm - N/A   Clear
9:55 PM 63.7 °F 56.3 °F 77% 30.10 in 10.0 mi Calm Calm - N/A   Clear
10:15 PM 63.1 °F 55.9 °F 77% 30.10 in 10.0 mi Calm Calm - N/A   Clear
10:35 PM 61.5 °F 56.3 °F 83% 30.09 in 10.0 mi Calm Calm - N/A   Clear
10:55 PM 60.1 °F 55.8 °F 86% 30.09 in 10.0 mi Calm Calm - N/A   Clear
11:15 PM 59.9 °F 55.6 °F 86% 30.09 in 10.0 mi Calm Calm - N/A   Clear
11:35 PM 59.5 °F 55.4 °F 86% 30.08 in 10.0 mi Calm Calm - N/A   Clear
11:55 PM 58.8 °F 54.9 °F 87% 30.08 in 10.0 mi Calm Calm - N/A   Clear